Tiempo atmosférico en la estación meteorológica de Menorca Aeropuerto, Illes Balears (91 m.)



Fecha
DESCASC
Temp. máxima en grados centígrados (hora)
DESCASC
Temp. mínima en grados centígrados (hora)
DESCASC
Temp. media en grados centígrados
DESCASC
Racha de viento máxima en m/sg (hora)
DESCASC
Velocidad máxima media en intervalos de 10 minutos(hora)
DESCASC
Precipitaciones diarias en mm
DESCASC
Precipitaciones de 00:00 a 06:00 en mm
DESCASC
Precipitaciones de 06:00 a 12:00 en mm
DESCASC
Precipitaciones de 12:00 a 18:00 en mm
DESCASC
Precipitaciones de 18:00 a 24:00 en mm
DESCASC

Gráficas

Temp. máximas Temp. mínimas Temp. medias Precipitaciones Rachas de viento máximas Velocidades máximas media en intervalos de 10 minutos

Datos horarios

Fecha y hora oficial Temperatura (ºC) Velocidad del viento (km/h) Dirección del viento Racha (km/h) Dirección de racha Precipitación (mm) Presión (hPa) Tendencia (hPa) Humedad (%)
2020-11-23 23:00:00 5.9 4 Noroeste -- -- 0 1017.1 0 85
2020-11-23 22:00:00 7.3 5 Noroeste 9 Noroeste 0 1017 -0.1 85
2020-11-23 21:00:00 7.3 6 Noroeste 9 Noroeste 0 1017.1 0.2 82
2020-11-23 20:00:00 -- 8 Noroeste -- -- 0 1017.1 0.5 --
2020-11-23 19:00:00 9.9 9 Noroeste 15 Norte 0 1017.1 0.5 74
2020-11-23 18:00:00 10.3 12 Norte 15 Norte 0 1016.9 0.3 73
2020-11-23 17:00:00 12.8 12 Norte 18 Norte 0 1016.6 -0.2 64
2020-11-23 16:00:00 14.9 12 Norte 26 Nordeste 0 1016.6 -0.5 54
2020-11-23 15:00:00 16.1 14 Norte 28 Norte 0 1016.6 -1.1 51
2020-11-23 14:00:00 16.6 13 Norte 26 Nordeste 0 1016.8 -1.4 50
2020-11-23 13:00:00 16.5 14 Norte 30 Norte 0 1017.1 -0.7 50
2020-11-23 12:00:00 16.4 16 Nordeste 32 Norte 0 1017.7 0 51
2020-11-23 11:00:00 15.9 18 Nordeste 30 Nordeste 0 1018.2 1.1 51
2020-11-23 10:00:00 14.6 19 Norte 28 Nordeste 0 1017.8 1 59
2020-11-23 09:00:00 11.4 10 Norte 15 Norte 0 1017.7 1.1 73
2020-11-23 08:00:00 9.7 10 Norte 15 Norte 0 1017.1 0.5 79
2020-11-23 07:00:00 -- 11 Norte 15 Norte 0 1016.8 0.1 --
2020-11-23 06:00:00 9.9 10 Norte 15 Norte 0 1016.6 -0.1 79
2020-11-23 05:00:00 9.7 10 Noroeste 11 Norte 0 1016.6 -0.2 79
2020-11-23 04:00:00 8.5 9 Norte 17 Norte 0 1016.7 -- 81
2020-11-23 03:00:00 8.7 11 Norte 13 Norte 0 1016.7 -- 80
2020-11-23 02:00:00 8.8 10 Norte 15 Nordeste 0 1016.8 -- 79
2020-11-23 01:00:00 8.8 13 Nordeste 18 Nordeste 0 1016.8 -- 80
2020-11-23 00:00:00 10.5 6 Norte 15 Norte 0 1016.9 -- 74
2020-11-22 23:00:00 10 14 Norte 21 Norte 0 1016.8 -- 75
2020-11-22 22:00:00 11.9 14 Norte 28 Nordeste 0 1016.9 -- 69
2020-11-22 21:00:00 13.1 18 Nordeste 28 Nordeste 0 1016.6 -- 60
2020-11-22 20:00:00 13.6 19 Nordeste 30 Nordeste 0 1016.4 -- 60
2020-11-22 19:00:00 13.5 18 Nordeste 28 Nordeste 0 1016.1 -- 65
2020-11-22 18:00:00 13.4 17 Nordeste 32 Norte 0 1015.9 -- 65
2020-11-22 17:00:00 14.3 21 Nordeste 39 Nordeste 0 1015.6 -- 58
2020-11-22 16:00:00 15.7 24 Nordeste 41 Norte 0 1015.3 -- 52
2020-11-22 15:00:00 16.3 26 Nordeste 41 Nordeste 0 1015.3 -- 55
2020-11-22 14:00:00 16.5 26 Norte 46 Nordeste 0 1015.3 -- 54
2020-11-22 13:00:00 16.3 27 Nordeste 42 Norte 0 1015.9 -- 55
2020-11-22 12:00:00 15.8 31 Norte 48 Norte 0 1016.3 -- 57
2020-11-22 11:00:00 14.8 24 Nordeste 41 Norte 0 1016.9 -- 57
2020-11-22 10:00:00 14.2 32 Nordeste 46 Nordeste 0 1016.6 -- 58
2020-11-22 09:00:00 14 30 Norte 41 Nordeste 0 1016.2 -- 58
2020-11-22 08:00:00 13.4 27 Norte 41 Nordeste 0 1016.1 -- 60
2020-11-22 07:00:00 13.7 28 Norte 42 Nordeste 0 1015.8 -- 59
2020-11-22 06:00:00 13.5 26 Nordeste 41 Nordeste 0 1015.8 -- 59
2020-11-22 05:00:00 13.6 27 Norte 41 Nordeste 0 1015.6 -- 61
2020-11-22 04:00:00 13.2 23 Norte 42 Nordeste 0 1015.6 -- 63
2020-11-22 03:00:00 13.5 33 Norte 42 Nordeste 0 1015.7 -- 63
2020-11-22 02:00:00 13.4 29 Norte 45 Nordeste 0 1016.1 -- 61
2020-11-22 01:00:00 13.5 28 Norte 41 Nordeste 0 1016.5 -- 59
2020-11-22 00:00:00 13.7 32 Norte 50 Nordeste 0 1016.3 -- 54
2020-11-21 23:00:00 13.6 37 Nordeste 50 Nordeste 0 1016.5 -- 56
2020-11-21 22:00:00 13.6 33 Nordeste 52 Nordeste 0 1016.6 -- 51
2020-11-21 21:00:00 13.4 34 Nordeste 58 Nordeste 0 1016.8 -- 52
2020-11-21 20:00:00 13.6 34 Norte 55 Norte 0 1016.8 -- 52
2020-11-21 19:00:00 13.6 34 Norte 50 Norte 0 1016.5 -- 55
2020-11-21 18:00:00 13.6 30 Norte 52 Norte 0 1016.2 -- 53
2020-11-21 17:00:00 14.4 35 Norte 50 Norte 0 1016 -- 54
2020-11-21 16:00:00 15.8 35 Norte 50 Norte 0 1015.9 -- 50
2020-11-21 15:00:00 16.5 33 Nordeste 50 Norte 0 1015.9 -- 50
2020-11-21 14:00:00 16.4 31 Norte 48 Norte 0 1016 -- 60
2020-11-21 13:00:00 16.3 33 Norte 46 Nordeste 0 1016.4 -- 62
2020-11-21 12:00:00 16 30 Norte 48 Norte 0 1016.9 -- 65
2020-11-21 11:00:00 15.3 32 Norte 48 Norte 0 1017 -- 65
2020-11-21 10:00:00 14.8 33 Norte 45 Norte 0 1016.6 -- 65
2020-11-21 09:00:00 13.8 27 Norte 41 Norte 0 1016.2 -- 67
2020-11-21 08:00:00 12.1 26 Norte 41 Norte 0 1015.7 -- 74
2020-11-21 07:00:00 12 23 Norte 42 Norte 0 1015.3 -- 73
2020-11-21 06:00:00 12 27 Norte 48 Norte 0 1015.1 -- 71
2020-11-21 05:00:00 12.3 31 Norte 50 Norte 0 1015 -- 70
2020-11-21 04:00:00 12.2 31 Norte 50 Norte 0 1014.7 -- 69
2020-11-21 03:00:00 11.9 29 Norte 50 Norte 0 1014.9 -- 68
2020-11-21 02:00:00 12.1 30 Norte 50 Norte 0 1014.9 -- 71
2020-11-21 01:00:00 12.2 31 Norte 52 Norte 0 1015 -- 71
2020-11-21 00:00:00 12.1 33 Norte 67 Norte 0 1015.4 -- 70
2020-11-20 23:00:00 12.3 36 Norte 61 Norte 0 1015.4 -- 67
2020-11-20 22:00:00 12.6 35 Norte 65 Norte 0 1015.7 -- 63
2020-11-20 21:00:00 12.5 47 Norte 67 Norte 0 1015.4 -- 62
2020-11-20 20:00:00 12.6 41 Norte 67 Norte 0 1015.4 -- 59
2020-11-20 19:00:00 12.4 47 Norte 65 Norte 0 1015 -- 60
2020-11-20 18:00:00 12.6 42 Norte 65 Norte 0 1014.7 -- 56
2020-11-20 17:00:00 13.2 50 Norte 78 Norte 0 1014.9 -- 51
2020-11-20 16:00:00 14.5 52 Norte 71 Norte 0 1014.5 -- 48
2020-11-20 15:00:00 15 46 Norte 74 Norte 0 1014.7 -- 49
2020-11-20 14:00:00 15.6 43 Norte 72 Norte 0 1015.1 -- 43
2020-11-20 13:00:00 15.5 46 Norte 68 Norte 0 1015.3 -- 45
2020-11-20 12:00:00 15.4 42 Norte 71 Norte 0 1016.1 -- 44
2020-11-20 11:00:00 14.8 49 Norte 78 Norte 0 1016.4 -- 49
2020-11-20 10:00:00 13.6 47 Norte 76 Norte 0 1016.4 -- 55
2020-11-20 09:00:00 13.8 46 Norte 78 Norte 0 1016.2 -- 59
2020-11-20 08:00:00 13.3 48 Norte 78 Norte 0 1015.7 -- 58
2020-11-20 07:00:00 13.6 46 Norte 76 Norte 0 1015.6 -- 58
2020-11-20 06:00:00 14.2 49 Norte 72 Norte 0 1015.9 -- 58
2020-11-20 05:00:00 14.2 48 Norte 74 Norte 0 1016.2 -- 56
2020-11-20 04:00:00 14.2 48 Norte 74 Norte 0 1016.5 -- 60
2020-11-20 03:00:00 14.4 46 Norte 65 Norte 0 1016.9 -- 62
2020-11-20 02:00:00 14.7 44 Norte 67 Norte 0 1017.3 -- 55
2020-11-20 01:00:00 15.1 43 Norte 65 Norte 0 1017.8 -- 55
2020-11-20 00:00:00 15.7 30 Norte 52 Norte 0 1018.3 -- 62
2020-11-19 23:00:00 16 25 Norte 37 Norte 0 1018.4 -- 75
2020-11-19 22:00:00 14.5 9 Noroeste 13 Noroeste 0 1018.1 -- 91
2020-11-19 21:00:00 16.1 8 Noroeste 18 Norte 0 1017.7 -- 84
2020-11-19 20:00:00 17 11 Noroeste 24 Norte 0 1017.9 -- 81
2020-11-19 19:00:00 17.1 12 Norte 22 Norte 0 1017.6 -- 80
2020-11-19 18:00:00 15.9 10 Norte 22 Norte 0 1017 -- 83
2020-11-19 17:00:00 18.4 12 Norte 30 Norte 0 1017.1 -- 73
2020-11-19 16:00:00 19.6 19 Norte 35 Nordeste 0 1017.1 -- 67
2020-11-19 15:00:00 20.6 19 Norte 30 Norte 0 1017.2 -- 59
2020-11-19 14:00:00 20.8 11 Norte 24 Norte 0 1017.4 -- 56
2020-11-19 13:00:00 19.9 11 Norte 26 Norte 0 1018.1 -- 64
2020-11-19 12:00:00 18.8 11 Noroeste 21 Noroeste 0 1018.6 -- 69
2020-11-19 11:00:00 18.1 13 Norte 24 Noroeste 0 1019.1 -- 73
2020-11-19 10:00:00 17.2 8 Norte 13 Norte 0 1018.7 -- 80
2020-11-19 09:00:00 14.6 9 Norte -- -- 0 1018.5 -- 90
2020-11-19 08:00:00 11.2 13 Norte 15 Norte 0 1018.2 -- 98
2020-11-19 07:00:00 11.7 -- -- -- -- 0 1017.7 -- 97
2020-11-19 06:00:00 10.5 10 Norte -- -- 0 1017.4 -- 97
2020-11-19 05:00:00 11.9 -- -- -- -- 0 1017.4 -- 97
2020-11-19 04:00:00 10.6 11 Norte 13 Norte 0 1017.4 -- 96
2020-11-19 03:00:00 9.8 11 Norte 13 Norte 0 1017.5 -- 95
2020-11-19 02:00:00 10.8 12 Norte 13 Norte 0 1017.4 -- 94
2020-11-19 01:00:00 10.4 9 Noroeste 11 Noroeste 0 1017.8 -- 96
2020-11-19 00:00:00 9.7 9 Norte 11 Norte 0 1017.8 -- 95
2020-11-18 23:00:00 11 10 Norte -- -- 0 1017.8 -- 96
2020-11-18 22:00:00 10.4 8 Noroeste 9 Noroeste 0 1017.9 -- 94
2020-11-18 21:00:00 11.9 8 Norte -- -- 0 1017.5 -- 93
2020-11-18 20:00:00 11.8 4 Nordeste 9 Norte 0 1017.5 -- 92
2020-11-18 19:00:00 12.8 6 Nordeste -- -- 0 1017 -- 91
2020-11-18 18:00:00 14 8 Nordeste 11 Nordeste 0 1016.7 -- 86
2020-11-18 17:00:00 17.6 7 Nordeste 13 Este 0 1016.6 -- 73
2020-11-18 16:00:00 20.8 6 Sudeste 15 Este 0 1016.6 -- 63
2020-11-18 15:00:00 20.2 10 Nordeste 18 Norte 0 1016.5 -- 62
2020-11-18 14:00:00 20.7 6 Sudoeste 15 Sudoeste 0 1016.6 -- 62
2020-11-18 13:00:00 20.6 7 Sudoeste 15 Sudoeste 0 1017.1 -- 62
2020-11-18 12:00:00 20 7 Este 15 Norte 0 1017.6 -- 61
2020-11-18 11:00:00 19.6 7 Este 13 Norte 0 1017.9 -- 65
2020-11-18 10:00:00 17.9 5 Norte 9 Norte 0 1017.8 -- 80
2020-11-18 09:00:00 14.3 8 Norte 11 Norte 0 1017.5 -- 96
2020-11-18 08:00:00 10.4 9 Noroeste 11 Norte 0 1017 -- 98
2020-11-18 07:00:00 10.6 5 Noroeste 13 Norte 0 1016.6 -- 98
2020-11-18 06:00:00 11.9 11 Norte 15 Noroeste 0 1016.3 -- 98
2020-11-18 05:00:00 11.8 10 Noroeste 15 Noroeste 0 1016 -- 97
2020-11-18 04:00:00 11.8 10 Norte 15 Norte 0 1016.1 -- 96
2020-11-18 03:00:00 12.3 13 Norte 21 Norte 0 1016.4 -- 96
2020-11-18 02:00:00 11 14 Norte 17 Norte 0 1016.5 -- 96
2020-11-18 01:00:00 10.7 13 Norte 17 Norte 0 1016.5 -- 95
2020-11-18 00:00:00 11.3 11 Norte 15 Norte 0 1016.7 -- 93
2020-11-17 23:00:00 11.2 13 Norte 17 Norte 0 1016.7 -- 92
2020-11-17 22:00:00 11.2 13 Norte 17 Norte 0 1016.7 -- 89
2020-11-17 21:00:00 10.5 9 Norte 13 Norte 0 1016.3 -- 89
2020-11-17 20:00:00 11.8 7 Noroeste 13 Noroeste 0 1016.2 -- 85
2020-11-17 19:00:00 12.3 11 Norte 17 Norte 0 1016.1 -- 85
2020-11-17 18:00:00 13.6 12 Norte 22 Norte 0 1015.8 -- 80
2020-11-17 17:00:00 16.1 17 Norte 32 Norte 0 1015.7 -- 71
2020-11-17 16:00:00 17.7 18 Norte 33 Norte 0 1015.3 -- 60
2020-11-17 15:00:00 18.5 22 Norte 35 Norte 0 1015 -- 57
2020-11-17 14:00:00 18.4 22 Norte 35 Norte 0 1015.2 -- 56
2020-11-17 13:00:00 18.5 22 Norte 41 Norte 0 1015.5 -- 52
2020-11-17 12:00:00 18.4 24 Norte 41 Norte 0 1016.3 -- 52
2020-11-17 11:00:00 17.8 23 Norte 41 Norte 0 1016.5 -- 61
2020-11-17 10:00:00 16.9 24 Norte 37 Norte 0 1016.3 -- 65
2020-11-17 09:00:00 16.4 20 Norte 35 Norte 0 1015.8 -- 69
2020-11-17 08:00:00 15.4 12 Norte 22 Norte 0 1015.2 -- 74
2020-11-17 07:00:00 14.3 9 Noroeste 24 Norte 0 1014.6 -- 78
2020-11-17 06:00:00 14.3 14 Norte 24 Noroeste 0 1013.7 -- 76
2020-11-17 05:00:00 14.8 17 Norte 33 Norte 0 1014.1 -- 72
2020-11-17 04:00:00 15.3 20 Norte 32 Norte 0 1014.2 -- 69
2020-11-17 03:00:00 15.7 17 Norte 35 Norte 0 1014.3 -- 65
2020-11-17 02:00:00 16 27 Norte 39 Norte 0 1014.4 -- 63
2020-11-17 01:00:00 15.9 18 Norte 30 Norte 0 1014.5 -- 64
2020-11-17 00:00:00 15.9 18 Norte 37 Norte 0 1014.5 -- 65
2020-11-16 23:00:00 16.2 31 Norte 48 Norte 0 1014.7 -- 64
2020-11-16 22:00:00 15.8 27 Norte 41 Norte 0 1014.5 -- 67
2020-11-16 21:00:00 15.5 29 Norte 37 Norte 0 1014.2 -- 70
2020-11-16 20:00:00 15.3 24 Norte 35 Norte 0 1013.3 -- 74
2020-11-16 19:00:00 15.4 24 Norte 37 Norte 0 1013 -- 75
2020-11-16 18:00:00 15.6 31 Norte 42 Norte 0 1012.3 -- 72
2020-11-16 17:00:00 16.6 34 Norte 46 Nordeste 0 1012.3 -- 66
2020-11-16 16:00:00 17.1 32 Norte 52 Norte 0 1011.5 -- 64
2020-11-16 15:00:00 17.2 39 Norte 58 Norte 0 1011.5 -- 63
2020-11-16 14:00:00 17.7 44 Norte 58 Norte 0 1011.1 -- 62
2020-11-16 13:00:00 19.5 43 Nordeste 55 Nordeste 0 1011.1 -- 53
2020-11-16 12:00:00 19 34 Norte 52 Nordeste 0 1011.7 -- 63
2020-11-16 11:00:00 18.1 34 Norte 46 Norte 0 1011.6 -- 72
2020-11-16 10:00:00 17.8 26 Norte 39 Norte 0 1011.2 -- 85
2020-11-16 09:00:00 17.7 17 Norte 30 Norte 0 1010.3 -- 89
2020-11-16 08:00:00 17.1 13 Norte 28 Norte 0 1009.7 -- 91
2020-11-16 07:00:00 17.7 8 Noroeste 13 Noroeste 0 1008.7 -- 96
2020-11-16 06:00:00 17.9 10 Oeste 15 Oeste 0 1007.9 -- 95
2020-11-16 05:00:00 18.1 11 Oeste 17 Sudoeste 0 1007.6 -- 93
2020-11-16 04:00:00 18.6 10 Oeste 26 Oeste 0 1007.8 -- 92
2020-11-16 03:00:00 18.6 15 Sudoeste 26 Sudoeste 0 1008.2 -- 92
2020-11-16 02:00:00 18.6 19 Sudoeste 33 Sudoeste 0 1008 -- 88
2020-11-16 01:00:00 18.4 20 Sudoeste 32 Sudoeste 0 1008.6 -- 84
2020-11-16 00:00:00 18.4 19 Sudoeste 30 Sudoeste 0 1009.1 -- 89
2020-11-15 23:00:00 18.1 17 Oeste 33 Oeste 0 1009.4 -- 84
2020-11-15 22:00:00 18.2 17 Sudoeste 28 Sudoeste 0 1009.7 -- 82
2020-11-15 21:00:00 18.2 18 Sudoeste 33 Sudoeste 0 1009.6 -- 86
2020-11-15 20:00:00 18.6 26 Sudoeste 41 Sudoeste 0 1009.3 -- 83
2020-11-15 19:00:00 18.8 24 Sudoeste 35 Sudoeste 0 1009.1 -- 85
2020-11-15 18:00:00 18.9 23 Sudoeste 33 Sudoeste 0 1008.9 -- 87
2020-11-15 17:00:00 19.7 21 Sudoeste 35 Sudoeste 0 1008.7 -- 81
2020-11-15 16:00:00 20.7 23 Sudoeste 33 Sudoeste 0 1008.6 -- 77
2020-11-15 15:00:00 20.2 23 Sudoeste 37 Sudoeste 0 1008.9 -- 82
2020-11-15 14:00:00 20.3 20 Sudoeste 32 Oeste 0 1009 -- 82
2020-11-15 13:00:00 20.8 21 Sudoeste 30 Sudoeste 0 1009.3 -- 78
2020-11-15 12:00:00 20.7 19 Sudoeste 28 Sudoeste 0 1010 -- 76
2020-11-15 11:00:00 20.1 17 Sudoeste 24 Sudoeste 0 1010.4 -- 77
2020-11-15 10:00:00 19.4 11 Sudoeste 15 Oeste 0.1 1010.3 -- 89
2020-11-15 09:00:00 17.4 4 Oeste 9 Oeste 0 1010.3 -- 96
2020-11-15 08:00:00 15.1 6 Oeste 9 Noroeste 0 1009.8 -- 96
2020-11-15 07:00:00 15.1 8 Oeste -- -- 0 1009.4 -- 96
2020-11-15 06:00:00 16.1 8 Noroeste -- -- 0 1009.2 -- 95
2020-11-15 05:00:00 16.6 8 Oeste 11 Noroeste 0 1009.2 -- 96
2020-11-15 04:00:00 16.6 7 Noroeste 11 Noroeste 0 1009.2 -- 95
2020-11-15 03:00:00 16.2 8 Noroeste 13 Noroeste 0 1009.6 -- 95
2020-11-15 02:00:00 16.2 8 Noroeste 13 Norte 0 1009.7 -- 97
2020-11-15 01:00:00 16.5 8 Noroeste 13 Noroeste 0 1009.9 -- 97
2020-11-15 00:00:00 16.2 7 Noroeste 11 Noroeste 0 1010.2 -- 98
2020-11-14 23:00:00 14.9 8 Noroeste 9 Noroeste 0 1010.3 -- 97
2020-11-14 22:00:00 15.6 4 Sudoeste -- -- 0 1010.1 -- 97
2020-11-14 21:00:00 16.3 0 Calma -- -- 0 1009.9 -- 96
2020-11-14 20:00:00 17 0 Calma 4 Oeste 0 1010 -- 95
2020-11-14 19:00:00 17.5 0 Calma 2 Noroeste 0 1009.7 -- 94
2020-11-14 18:00:00 18.2 0 Calma 4 Oeste 0 1009.4 -- 91
2020-11-14 17:00:00 19.4 4 Sur 11 Sudoeste 0 1009.3 -- 87
2020-11-14 16:00:00 20 9 Sur 13 Sur 0 1009.3 -- 83
2020-11-14 15:00:00 21.2 9 Este 13 Este 0 1009.2 -- 74
2020-11-14 14:00:00 23 8 Sudeste 15 Sudeste 0 1009.3 -- 69
2020-11-14 13:00:00 21.7 9 Sudeste 21 Sudeste 0 1009.7 -- 74
2020-11-14 12:00:00 20.3 10 Este 18 Este 0 1010.3 -- 83
2020-11-14 11:00:00 20.4 12 Este 21 Norte 0 1010.6 -- 82
2020-11-14 10:00:00 19.6 14 Este 22 Este 0 1010.5 -- 91
2020-11-14 09:00:00 17.3 10 Este 13 Este 0 1010.3 -- 98
2020-11-14 08:00:00 16.3 13 Este -- -- 0 1010.1 -- 98
2020-11-14 07:00:00 15.8 14 Este 15 Este 0 1009.8 -- 98
2020-11-14 06:00:00 15.7 11 Este 13 Este 0 1009.9 -- 98
2020-11-14 05:00:00 15.9 12 Este 13 Este 0 1009.8 -- 98
2020-11-14 04:00:00 15.7 10 Este 13 Este 0 1010 -- 98
2020-11-14 03:00:00 16.1 9 Este 15 Este 0 1010.4 -- 97
2020-11-14 02:00:00 16.3 10 Este 15 Este 0 1010.8 -- 96
2020-11-14 01:00:00 16.7 10 Nordeste 18 Este 0 1011 -- 97
2020-11-14 00:00:00 15.9 9 Este 17 Este 0 1011.2 -- 97
2020-11-13 23:00:00 15 13 Este 15 Este 0 1011.4 -- 97
2020-11-13 22:00:00 15.3 12 Este 17 Este 0 1011.4 -- 96
2020-11-13 21:00:00 -- 9 Este 13 Este 0 1011.3 -- --
2020-11-13 20:00:00 16.1 9 Este 17 Este 0 1011.1 -- 93
2020-11-13 19:00:00 16.4 9 Este 13 Este 0 1011.1 -- 92
2020-11-13 18:00:00 17.1 7 Nordeste 15 Este 0 1010.6 -- 89
2020-11-13 17:00:00 18.9 13 Este 21 Este 0 1010.1 -- 82
2020-11-13 16:00:00 20.4 13 Este 22 Este 0 1010.3 -- 75
2020-11-13 15:00:00 21 13 Este 26 Sudeste 0 1010.3 -- 73
2020-11-13 14:00:00 21.5 13 Este 24 Este 0 1010.5 -- 71
2020-11-13 13:00:00 21.5 13 Sudeste 22 Este 0 1011 -- 69
2020-11-13 12:00:00 21.4 13 Sudeste 22 Este 0 1011.6 -- 72
2020-11-13 11:00:00 20.4 13 Este 18 Este 0 1012 -- 76
2020-11-13 10:00:00 18.9 10 Este 13 Este 0 1011.9 -- 87
2020-11-13 09:00:00 16.7 9 Este 11 Este 0 1011.6 -- 96
2020-11-13 08:00:00 14.5 10 Nordeste 11 Norte 0 1011.1 -- 97
2020-11-13 07:00:00 14.3 8 Este 13 Sudeste 0 1011 -- 97
2020-11-13 06:00:00 14.6 10 Este 13 Sudeste 0 1010.9 -- 97
2020-11-13 05:00:00 14.8 10 Este 15 Sudeste 0 1011 -- 95
2020-11-13 04:00:00 15.3 13 Sudeste 15 Sudeste 0 1011.2 -- 97
2020-11-13 03:00:00 14.8 11 Sudeste 13 Sudeste 0 1011.6 -- 96
2020-11-13 02:00:00 -- 8 Este 15 Sudeste 0 1011.9 -- --
2020-11-13 01:00:00 15.6 11 Sudeste 15 Sudeste 0 1012.4 -- 95
2020-11-13 00:00:00 15.4 9 Sudeste 15 Sudeste 0 1012.5 -- 96
2020-11-12 23:00:00 14.8 10 Sudeste 11 Sudeste 0 1012.7 -- 97
2020-11-12 22:00:00 14.2 7 Sudeste 11 Este 0 1012.6 -- 95
2020-11-12 21:00:00 -- 8 Este -- -- 0 1012.5 -- --
2020-11-12 20:00:00 14.6 5 Este 15 Este 0 1012.7 -- 93
2020-11-12 19:00:00 -- -- -- -- -- 0 1012.7 -- --
2020-11-12 18:00:00 15.9 10 Este 11 Este 0 1012.4 -- 90
2020-11-12 17:00:00 18.6 8 Este 9 Este 0 1012.4 -- 79
2020-11-12 16:00:00 19.7 6 Este 15 Este 0 1012.4 -- 73
2020-11-12 15:00:00 19.1 3 Este 11 Norte 0 1012.3 -- 73
2020-11-12 14:00:00 17.3 9 Norte 15 Noroeste 0 1012.9 -- 79
2020-11-12 13:00:00 16.5 3 Noroeste 13 Nordeste 0 1013.6 -- 90
2020-11-12 12:00:00 16 13 Nordeste 22 Norte 0.3 1014 -- 92
2020-11-12 11:00:00 15.5 10 Este 13 Este 0.2 1014.2 -- 95
2020-11-12 10:00:00 14.7 9 Norte 22 Noroeste 6.1 1014.2 -- 95
2020-11-12 09:00:00 16 12 Oeste 26 Norte 0.3 1014 -- 87
2020-11-12 08:00:00 16.1 9 Sudeste 13 Sudeste 0 1013.4 -- 92
2020-11-12 07:00:00 15.5 7 Sudeste 11 Sudeste 0 1012.8 -- 92
2020-11-12 06:00:00 15.6 7 Sudeste 15 Sur 0 1012.9 -- 91
2020-11-12 05:00:00 14.5 10 Sur 13 Sur 0 1013 -- 93
2020-11-12 04:00:00 14.7 9 Sur 13 Sur 0 1012.8 -- 92
2020-11-12 03:00:00 13.9 10 Sudeste 13 Sudeste 0 1013.3 -- 94
2020-11-12 02:00:00 13.3 9 Sudeste 11 Sudeste 0 1013.8 -- 97
2020-11-12 01:00:00 10.8 7 Sur 8 Sur 0 1014.5 -- 95
2020-11-12 00:00:00 12.2 8 Sudeste -- -- 0 1014.4 -- 96
2020-11-11 23:00:00 11 -- -- -- -- 0 1014.7 -- 95
2020-11-11 22:00:00 10.8 9 Sudeste -- -- 0 1014.7 -- 94
2020-11-11 21:00:00 11.1 6 Este -- -- 0 1014.6 -- 93
2020-11-11 20:00:00 13.4 7 Nordeste -- -- 0 1014.5 -- 92
2020-11-11 19:00:00 13.7 6 Nordeste -- -- 0 1014.1 -- 84
2020-11-11 18:00:00 -- -- -- -- -- 0 1013.7 -- --
2020-11-11 17:00:00 17.3 5 Este 15 Este 0 1013.9 -- 73
2020-11-11 16:00:00 18.9 10 Este 17 Norte 0 1013.7 -- 67
2020-11-11 15:00:00 18.2 12 Nordeste 22 Este 0 1013.7 -- 69
2020-11-11 14:00:00 19.3 10 Nordeste 21 Nordeste 0 1013.8 -- 63
2020-11-11 13:00:00 19.7 13 Nordeste 18 Nordeste 0 1014.5 -- 64
2020-11-11 12:00:00 20 12 Nordeste 21 Norte 0 1015.2 -- 63
2020-11-11 11:00:00 18.9 15 Norte 26 Nordeste 0 1015.6 -- 70
2020-11-11 10:00:00 18.4 13 Nordeste 21 Norte 0 1015.6 -- 74
2020-11-11 09:00:00 15.7 12 Norte 17 Norte 0 1015.5 -- 89
2020-11-11 08:00:00 12.6 -- -- -- -- 0 1015.2 -- 94
2020-11-11 07:00:00 12.1 14 Norte 17 Norte 0 -- -- 94
2020-11-11 06:00:00 13 14 Norte 17 Norte 0 1015 -- 95
2020-11-11 05:00:00 13 14 Norte 17 Norte 0 1015.4 -- 96
2020-11-11 04:00:00 13.1 14 Norte 17 Norte 0 1015.2 -- 96
2020-11-11 03:00:00 13.5 12 Norte 15 Norte 0 1015.4 -- 96
2020-11-11 02:00:00 14.2 10 Norte 17 Norte 0 1015.6 -- 96
2020-11-11 01:00:00 13.8 14 Norte 18 Norte 0 1015.4 -- 96
2020-11-11 00:00:00 14.2 15 Norte 18 Norte 0 1015.4 -- 95
2020-11-10 23:00:00 14.9 12 Norte 17 Norte 0 1015.5 -- 95
2020-11-10 22:00:00 15.3 11 Norte 21 Norte 0 1015.5 -- 95
2020-11-10 21:00:00 15.1 12 Norte 17 Norte 0 1015.2 -- 95
2020-11-10 20:00:00 14.7 9 Noroeste 13 Noroeste 0 1015 -- 94
2020-11-10 19:00:00 15.3 9 Norte 15 Norte 0 1014.9 -- 92
2020-11-10 18:00:00 16.2 9 Norte 22 Norte 0 1014.6 -- 87
2020-11-10 17:00:00 18.3 15 Norte 26 Norte 0 1014.2 -- 75
2020-11-10 16:00:00 19.6 17 Norte 28 Noroeste 0 1013.7 -- 70
2020-11-10 15:00:00 20 19 Norte 30 Norte 0 1013.6 -- 67
2020-11-10 14:00:00 20.5 18 Norte 26 Norte 0 1013.7 -- 64
2020-11-10 13:00:00 20.5 12 Noroeste 26 Norte 0 1013.9 -- 66
2020-11-10 12:00:00 20.4 16 Norte 30 Norte 0 1014.2 -- 70
2020-11-10 11:00:00 19.1 16 Norte 24 Norte 0 1014.4 -- 75
2020-11-10 10:00:00 18.5 12 Noroeste 21 Norte 0 1014.1 -- 84
2020-11-10 09:00:00 16.5 8 Noroeste 13 Noroeste 0 1013.7 -- 95
2020-11-10 08:00:00 13.1 9 Norte 11 Norte 0 1013.1 -- 98
2020-11-10 07:00:00 13.6 6 Noroeste 13 Norte 0 1012.5 -- 97
2020-11-10 06:00:00 13.9 10 Norte 13 Norte 0 1012.3 -- 97
2020-11-10 05:00:00 14.2 10 Noroeste 13 Noroeste 0 1012.1 -- 97
2020-11-10 04:00:00 14.5 9 Noroeste 13 Noroeste 0 1012.1 -- 97
2020-11-10 03:00:00 14.6 9 Noroeste 13 Noroeste 0 1012.2 -- 98
2020-11-10 02:00:00 14.9 11 Norte 15 Norte 0 1012.1 -- 97
2020-11-10 01:00:00 15.1 12 Norte 15 Norte 0 1012.1 -- 97
2020-11-10 00:00:00 15.4 11 Norte 15 Norte 0 1012.2 -- 97
2020-11-09 23:00:00 15.3 10 Norte 15 Norte 0 1012.1 -- 97
2020-11-09 22:00:00 16.1 10 Norte 15 Norte 0 1012 -- 96
2020-11-09 21:00:00 16.2 10 Norte 13 Norte 0 1011.7 -- 95
2020-11-09 20:00:00 16.3 12 Norte 15 Norte 0 1011.6 -- 96
2020-11-09 19:00:00 16.2 11 Norte 13 Norte 0 1011.5 -- 94
2020-11-09 18:00:00 18.4 8 Norte 11 Norte 0 1011.2 -- 89
2020-11-09 17:00:00 19.4 6 Oeste 13 Oeste 0 1010.8 -- 86
2020-11-09 16:00:00 20.6 10 Oeste 18 Sudoeste 0 1010.7 -- 81
2020-11-09 15:00:00 22.8 7 Sudoeste 15 Sudoeste 0 1010.4 -- 68
2020-11-09 14:00:00 22 5 Norte 15 Nordeste 0 1010.2 -- 69
2020-11-09 13:00:00 20.8 9 Nordeste 17 Nordeste 0 1011 -- 78
2020-11-09 12:00:00 20.3 12 Nordeste 18 Este 0 1011.5 -- 79
2020-11-09 11:00:00 19.9 11 Nordeste 24 Este 0 1012 -- 84
2020-11-09 10:00:00 19.5 9 Este 17 Nordeste 0 1011.9 -- 95
2020-11-09 09:00:00 16.8 9 Norte 13 Norte 0 1011.8 -- 100
2020-11-09 08:00:00 14.8 12 Nordeste 17 Nordeste 0 1011.1 -- 100
2020-11-09 07:00:00 13.5 10 Nordeste 11 Nordeste 0 1010.7 -- 100
2020-11-09 06:00:00 13.4 8 Nordeste -- -- 0 1010.7 -- 99
2020-11-09 05:00:00 -- -- -- -- -- 0 1010.9 -- --
2020-11-09 04:00:00 13.3 6 Este 9 Este 0 1011 -- 99
2020-11-09 03:00:00 13.6 8 Nordeste 9 Este 0 1011.5 -- 100
2020-11-09 02:00:00 13.9 7 Nordeste -- -- 0 1011.7 -- 99
2020-11-09 01:00:00 13.3 9 Nordeste -- -- 0 1011.7 -- 99
2020-11-09 00:00:00 13.3 -- -- -- -- 0 1011.8 -- 99
2020-11-08 23:00:00 13.5 3 Nordeste 9 Nordeste 0 1011.9 -- 98
2020-11-08 22:00:00 13.2 0 Calma 9 Este 0 1012.2 -- 96
2020-11-08 21:00:00 14.4 4 Nordeste 13 Norte 0 1012.2 -- 95
2020-11-08 20:00:00 14.1 11 Norte 13 Norte 0 1012.1 -- 95
2020-11-08 19:00:00 14.7 5 Noroeste 9 Noroeste 0 1012.5 -- 92
2020-11-08 18:00:00 17 3 Oeste 11 Sudoeste 0 1012.1 -- 89
2020-11-08 17:00:00 19.2 8 Sudoeste 13 Oeste 0 1012.1 -- 81
2020-11-08 16:00:00 21.5 8 Sudoeste 21 Sudoeste 0 1012.1 -- 73
2020-11-08 15:00:00 21.2 12 Sur 18 Sudoeste 0 1012.2 -- 78
2020-11-08 14:00:00 22.6 11 Sur 18 Sur 0 1012.2 -- 71
2020-11-08 13:00:00 22.9 7 Sur 15 Sudoeste 0 1012.8 -- 70
2020-11-08 12:00:00 22.9 4 Sur 15 Sur 0 1013.7 -- 69
2020-11-08 11:00:00 21.9 7 Sudoeste 15 Sur 0 1014.3 -- 75
2020-11-08 10:00:00 20.1 5 Sur 9 Sur 0 1014.1 -- 92
2020-11-08 09:00:00 17.6 0 Calma 5 Noroeste 0 1014 -- 99
2020-11-08 08:00:00 13.8 4 Oeste 8 Sur 0 1013.6 -- 99
2020-11-08 07:00:00 13 3 Noroeste 5 Noroeste 0 1013.1 -- 98
2020-11-08 06:00:00 13 4 Noroeste 5 Noroeste 0 1013.1 -- 98
2020-11-08 05:00:00 13.7 5 Oeste -- -- 0 1013.2 -- 98
2020-11-08 04:00:00 13.9 7 Sudoeste -- -- 0 1013.3 -- 97
2020-11-08 03:00:00 15 3 Noroeste 13 Oeste 0 1013.6 -- 96
2020-11-08 02:00:00 15.9 9 Oeste 9 Oeste 0 1013.8 -- 96
2020-11-08 01:00:00 17.5 6 Sur 13 Sur 0 1014.1 -- 95
2020-11-08 00:00:00 17.8 9 Sur 13 Sur 0 1014.2 -- 95
2020-11-07 23:00:00 18.2 10 Sudoeste 21 Sur 0 1014.1 -- 95
2020-11-07 22:00:00 18.4 10 Sur 15 Sur 0 1013.8 -- 97
2020-11-07 21:00:00 18.7 9 Sur 15 Sur 0 1013.3 -- 96
2020-11-07 20:00:00 18.6 9 Sur 17 Sur 0 1013.1 -- 95
2020-11-07 19:00:00 19.1 13 Sur 24 Sudeste 0 1013 -- 94
2020-11-07 18:00:00 19.4 16 Sudeste 28 Sudeste 0 1012.3 -- 91
2020-11-07 17:00:00 20.7 17 Sudeste 28 Sudeste 0 1012 -- 79
2020-11-07 16:00:00 20.4 17 Sudeste 26 Sudeste 0 1011.8 -- 82
2020-11-07 15:00:00 19.2 11 Sudeste 18 Sudeste 0 1012.3 -- 83
2020-11-07 14:00:00 19.1 12 Sur 26 Sur 0.3 1013.3 -- 85
2020-11-07 13:00:00 19.8 10 Sudoeste 28 Sudoeste 0 1013.3 -- 79
2020-11-07 12:00:00 20.9 19 Sur 30 Sur 0 1014.1 -- 89
2020-11-07 11:00:00 20.9 21 Sur 33 Sur 0 1013.8 -- 88
2020-11-07 10:00:00 20.7 26 Sur 39 Sudeste 0 1013.4 -- 88
2020-11-07 09:00:00 19.6 23 Sur 45 Sudeste 0 1013.3 -- 92
2020-11-07 08:00:00 19.3 23 Sudeste 41 Sudeste 0 1012 -- 92
2020-11-07 07:00:00 19.2 27 Sudeste 46 Sudeste 0 1011.4 -- 91
2020-11-07 06:00:00 19.1 27 Sudeste 48 Sudeste 0 1011.2 -- 92
2020-11-07 05:00:00 19 31 Sudeste 46 Sudeste 0 1010.7 -- 93
2020-11-07 04:00:00 18.7 26 Sudeste 45 Sudeste 0 1011.1 -- 93
2020-11-07 03:00:00 18.7 26 Sudeste 42 Sudeste 0 1011.4 -- 93
2020-11-07 02:00:00 18.7 27 Sudeste 42 Sudeste 0 1011.9 -- 92
2020-11-07 01:00:00 18.7 27 Sudeste 42 Sudeste 0 1011.9 -- 90
2020-11-07 00:00:00 18.6 26 Este 46 Este 0 1012.3 -- 90
2020-11-06 23:00:00 18.7 31 Este 45 Este 0 1012.5 -- 90
2020-11-06 22:00:00 18.7 25 Este 39 Este 0 1012.8 -- 90
2020-11-06 21:00:00 18.7 26 Este 41 Este 0 1013 -- 91
2020-11-06 20:00:00 19.1 26 Este 45 Este 0 1013.1 -- 89
2020-11-06 19:00:00 19.1 30 Este 41 Este 0 1012.9 -- 88
2020-11-06 18:00:00 19.1 29 Este 42 Este 0 1012.9 -- 88
2020-11-06 17:00:00 19.6 21 Sudeste 42 Este 0 1013.2 -- 87
2020-11-06 16:00:00 20.5 29 Este 42 Este 0 1013.3 -- 81
2020-11-06 15:00:00 20.1 27 Este 46 Este 0 1013.5 -- 82
2020-11-06 14:00:00 21.1 32 Este 48 Este 0 1013.7 -- 77
2020-11-06 13:00:00 20.7 31 Sudeste 48 Este 0 1014.4 -- 77
2020-11-06 12:00:00 21.1 33 Este 48 Este 0 1014.9 -- 75
2020-11-06 11:00:00 20.5 32 Este 45 Sudeste 0 1015.4 0.8 77
2020-11-06 10:00:00 20.3 26 Este 39 Este 0 1015.3 -- 79
2020-11-06 09:00:00 19.9 26 Este 37 Este 0 1015 -- 81
2020-11-06 08:00:00 19.1 23 Este 33 Este 0 1014.6 -- 85
2020-11-06 07:00:00 19 20 Este 30 Este 0 1014.3 -- 87
2020-11-06 06:00:00 19 18 Este 30 Este 0 1014.3 -- 87
2020-11-06 05:00:00 18.9 19 Este 32 Este 0 1013.9 -- 86
2020-11-06 04:00:00 18.9 20 Este 32 Este 0 1013.8 -- 85
2020-11-06 03:00:00 18.9 20 Este 35 Este 0 1013.8 -- 86
2020-11-06 02:00:00 18.9 24 Este 41 Este 0 1013.9 -- 86
2020-11-06 01:00:00 18.7 29 Este 42 Este 0 1013.7 -- 88
2020-11-06 00:00:00 18.6 27 Este 41 Este 0 1014.2 -- 87
2020-11-05 23:00:00 18.7 24 Este 37 Este 0 1014.9 -- 85
2020-11-05 22:00:00 18.6 23 Este 35 Este 0 1015.1 -- 84
2020-11-05 21:00:00 18.5 22 Este 35 Este 0 1014.8 -- 85
2020-11-05 20:00:00 18.4 22 Este 35 Este 0 1015 -- 84
2020-11-05 19:00:00 18.4 19 Este 32 Este 0 1015.1 -- 81
2020-11-05 18:00:00 18.8 18 Este 33 Este 0 1014.7 -- 81
2020-11-05 17:00:00 19 19 Este 32 Norte 0 1014.4 -- 78
2020-11-05 16:00:00 19.5 23 Este 32 Norte 0 1014.3 -- 73
2020-11-05 15:00:00 19.7 23 Este 33 Este 0 1014.3 -- 73
2020-11-05 14:00:00 20 23 Este 35 Este 0 1014.4 -- 70
2020-11-05 13:00:00 20.4 25 Este 39 Norte 0 1015 -- 69
2020-11-05 12:00:00 20.8 27 Este 41 Norte 0 1015.2 -- 66
2020-11-05 11:00:00 20.3 31 Este 41 Este 0 1015.3 -- 67
2020-11-05 10:00:00 19.6 27 Este 37 Este 0 1015.2 -- 74
2020-11-05 09:00:00 18.6 20 Nordeste 30 Este 0 1015.2 -- 78
2020-11-05 08:00:00 17.8 16 Este 28 Este 0 1014.5 -- 83
2020-11-05 07:00:00 17 15 Nordeste 24 Este 0 1014 -- 87
2020-11-05 06:00:00 16.9 17 Nordeste 26 Nordeste 0 1013.8 -- 88
2020-11-05 05:00:00 16.6 12 Nordeste 24 Nordeste 0 1013.8 -- 89
2020-11-05 04:00:00 16.4 17 Nordeste 24 Nordeste 0 1013.5 -- 90
2020-11-05 03:00:00 16.4 14 Nordeste 21 Nordeste 0 1013.7 -- 88
2020-11-05 02:00:00 16.4 14 Nordeste 24 Nordeste 0 1013.5 -- 86
2020-11-05 01:00:00 16.5 14 Nordeste 22 Nordeste 0 1013.8 -- 84
2020-11-05 00:00:00 16.6 21 Nordeste 30 Nordeste 0 1013.2 -- 82
2020-11-04 23:00:00 16.6 16 Nordeste 24 Nordeste 0 1013.8 -- 77
2020-11-04 22:00:00 16.7 18 Nordeste 26 Nordeste 0 1013.4 -- 76
2020-11-04 21:00:00 16 17 Nordeste 33 Nordeste 0 1012.7 -- 78
2020-11-04 20:00:00 16 23 Nordeste 33 Nordeste 0 1011.8 -- 77
2020-11-04 19:00:00 16 24 Nordeste 39 Nordeste 0 1011.5 -- 76
2020-11-04 18:00:00 16.1 24 Nordeste 39 Nordeste 0 1010.7 -- 73
2020-11-04 17:00:00 16.6 30 Nordeste 39 Nordeste 0 1010.9 -- 71
2020-11-04 16:00:00 17.3 30 Nordeste 45 Nordeste 0 1010.4 -- 68
2020-11-04 15:00:00 17.2 29 Nordeste 42 Nordeste 0 1010.4 -- 69
2020-11-04 14:00:00 18.3 29 Nordeste 42 Nordeste 0 1010.9 -- 65
2020-11-04 13:00:00 18.8 31 Nordeste 42 Este 0 1011 -- 65
2020-11-04 12:00:00 18.5 29 Nordeste 41 Nordeste 0 1011.5 -- 66
2020-11-04 11:00:00 17.8 25 Nordeste 41 Este 0 1011.9 0.5 71
2020-11-04 10:00:00 18 31 Nordeste 39 Nordeste 0 1011.8 -- 70
2020-11-04 09:00:00 17.1 24 Nordeste 37 Nordeste 0 1011.7 -- 72
2020-11-04 08:00:00 16.6 26 Nordeste 35 Nordeste 0 1011.4 -- 74
2020-11-04 07:00:00 16.2 26 Nordeste 42 Nordeste 0 1011 -- 78
2020-11-04 06:00:00 16.2 27 Nordeste 39 Nordeste 0 1011.2 -- 81
2020-11-04 05:00:00 16.2 26 Nordeste 35 Nordeste 0 1011.7 -- 84
2020-11-04 04:00:00 16.2 23 Nordeste 32 Norte 0 1011.9 -- 88
2020-11-04 03:00:00 15.9 19 Nordeste 32 Nordeste 0 1012.4 -- 88
2020-11-04 02:00:00 16 26 Nordeste 35 Nordeste 0 1012.6 -- 83
2020-11-04 01:00:00 16.2 30 Nordeste 39 Norte 0 1013.3 -- 81
2020-11-04 00:00:00 17 29 Norte 37 Nordeste 0 1014.1 -- 77
2020-11-03 23:00:00 17.1 25 Nordeste 33 Nordeste 0 1014.3 -- 77
2020-11-03 22:00:00 17.6 25 Norte 37 Nordeste 0 1014.7 -- 78
2020-11-03 21:00:00 17.5 23 Norte 33 Norte 0 1014.6 -- 83
2020-11-03 20:00:00 17 16 Norte 28 Norte 0 1014.5 -- 81
2020-11-03 19:00:00 16.1 9 Norte 13 Nordeste 0 1014.3 -- 79
2020-11-03 18:00:00 18 12 Nordeste 22 Nordeste 0 1014.1 -- 68
2020-11-03 17:00:00 18.5 9 Nordeste 22 Norte 0 1013.9 -- 70
2020-11-03 16:00:00 19.1 16 Nordeste 26 Este 0 1013.7 -- 68
2020-11-03 15:00:00 19.7 17 Nordeste 26 Nordeste 0 1013.3 -- 67
2020-11-03 14:00:00 19.9 13 Nordeste 24 Este 0 1013.6 -- 66
2020-11-03 13:00:00 19.7 12 Este 24 Este 0 1014.1 -- 67
2020-11-03 12:00:00 21.9 10 Este 24 Este 0 1014.4 -- 60
2020-11-03 11:00:00 20.3 9 Nordeste 17 Este 0 1014.6 -- 66
2020-11-03 10:00:00 19.8 7 Sudeste 15 Sudeste 0 1014.5 -- 68
2020-11-03 09:00:00 18.3 5 Sudeste -- -- 0 1014.1 -- 78
2020-11-03 08:00:00 15.6 3 Este 13 Sudeste 0 1013.6 -- 85
2020-11-03 07:00:00 16.6 6 Sudeste 11 Este 0 1013.1 -- 81
2020-11-03 06:00:00 16.8 5 Nordeste 13 Este 0 1013.2 -- 82
2020-11-03 05:00:00 15.8 5 Nordeste 11 Este 0 1013.2 -- 86
2020-11-03 04:00:00 16 6 Este 9 Este 0 1013.3 -- 88
2020-11-03 03:00:00 16.5 5 Este -- -- 0 1013.3 -- 86
2020-11-03 02:00:00 17 4 Sur 13 Sur 0 1013.5 -- 85
2020-11-03 01:00:00 17.4 8 Sudoeste 17 Sur 0 1013.5 -- 85
2020-11-03 00:00:00 17 13 Sur 18 Sur 0 1013.6 -- 87
2020-11-02 23:00:00 16.4 11 Sur 18 Sur 0 1013.7 -- 88
2020-11-02 22:00:00 17 11 Sur 17 Sur 0 1013.7 -- 87
2020-11-02 21:00:00 16.8 13 Sur 18 Sur 0 1013.6 -- 88
2020-11-02 20:00:00 17.1 14 Sur 22 Sur 0 1013.3 -- 86
2020-11-02 19:00:00 17.7 12 Sur 21 Sur 0 1013 -- 84
2020-11-02 18:00:00 18.1 12 Sur 21 Sur 0 1012.5 -- 83
2020-11-02 17:00:00 19.2 13 Sur 24 Sur 0 1012.5 -- 78
2020-11-02 16:00:00 20.5 17 Sur 28 Sur 0 1012.5 -- 72
2020-11-02 15:00:00 20.7 18 Sudoeste 30 Sudoeste 0 1012.5 -- 72
2020-11-02 14:00:00 21 18 Sur 30 Sur 0 1012.8 -- 70
2020-11-02 13:00:00 20.9 18 Sur 30 Sudoeste 0 1013.4 -- 70
2020-11-02 12:00:00 20.5 20 Sudoeste 30 Sudoeste 0 1013.8 -- 72
2020-11-02 11:00:00 19.9 17 Sur 26 Sudoeste 0 1014.2 -- 75
2020-11-02 10:00:00 19.2 16 Sudoeste 26 Sur 0 1014 -- 78
2020-11-02 09:00:00 18.6 17 Sudoeste 26 Sur 0 1013.6 -- 81
2020-11-02 08:00:00 17.5 14 Sudoeste 21 Sudoeste 0 1013.1 -- 88
2020-11-02 07:00:00 16.3 11 Sudoeste 18 Sudoeste 0 1012.7 -- 91
2020-11-02 06:00:00 16.6 14 Sudoeste 21 Sudoeste 0 1012.6 -- 91
2020-11-02 05:00:00 16.9 13 Sudoeste 18 Sudoeste 0 1012.5 -- 89
2020-11-02 04:00:00 17.6 11 Sudoeste 26 Sudoeste 0 1012.5 -- 86
2020-11-02 03:00:00 17.4 14 Sudoeste 22 Sudoeste 0 1012.8 -- 86
2020-11-02 02:00:00 17.7 14 Sudoeste 22 Sudoeste 0 1013.1 -- 86
2020-11-02 01:00:00 17.9 16 Sudoeste 26 Sudoeste 0 1013.3 -- 85
2020-11-02 00:00:00 17.7 16 Sudoeste 22 Sudoeste 0 1013.8 -- 86
2020-11-01 23:00:00 17.2 13 Sudoeste 18 Sudoeste 0 1014 -- 88
2020-11-01 22:00:00 16.7 10 Sudoeste 18 Sur 0 1013.9 -- 90
2020-11-01 21:00:00 16.5 12 Sudoeste 17 Sur 0 1013.5 -- 91
2020-11-01 20:00:00 15.5 9 Sudoeste 13 Sudoeste 0 1013.5 -- 92
2020-11-01 19:00:00 15.8 8 Sudoeste 13 Sur 0 1013.6 -- 87
2020-11-01 18:00:00 17.4 8 Sudoeste 15 Sudoeste 0 1013.3 -- 83
2020-11-01 17:00:00 19.7 12 Sudoeste 22 Sudoeste 0 1013.1 -- 73
2020-11-01 16:00:00 20.4 13 Sudoeste 24 Sudoeste 0 1013.3 -- 70
2020-11-01 15:00:00 20.7 17 Sudoeste 28 Sudoeste 0 1013.6 -- 68
2020-11-01 14:00:00 20.6 17 Sudoeste 28 Sudoeste 0 1013.8 -- 68
2020-11-01 13:00:00 20.7 15 Sudoeste 24 Sudoeste 0 1014.2 -- 68
2020-11-01 12:00:00 20.2 15 Sudoeste 22 Oeste 0 1014.7 -- 70
2020-11-01 11:00:00 19.8 14 Sudoeste 22 Sudoeste 0 1015 -- 72
2020-11-01 10:00:00 19.5 14 Sudoeste 21 Sudoeste 0 1014.3 -- 74
2020-11-01 09:00:00 18.3 6 Sudoeste 11 Sudoeste 0 1014.3 -- 83
2020-11-01 08:00:00 14.3 7 Noroeste 11 Noroeste 0 1014.2 -- 95
2020-11-01 07:00:00 13.8 7 Noroeste 13 Noroeste 0 1014 -- 95
2020-11-01 06:00:00 14 8 Noroeste 13 Noroeste 0 1014 -- 95
2020-11-01 05:00:00 13.5 10 Oeste 13 Oeste 0 1013.6 -- 96
2020-11-01 04:00:00 13.6 7 Sudoeste 13 Sudoeste 0 1013 -- 94
2020-11-01 03:00:00 13.9 8 Oeste 11 Noroeste 0 1013.7 -- 95
2020-11-01 02:00:00 15 0 Calma 9 Oeste 0 1013.9 -- 95
2020-11-01 01:00:00 15.2 5 Oeste 11 Oeste 0 1014.5 -- 95
2020-11-01 00:00:00 15.2 9 Sudoeste 13 Sudoeste 0 1014.6 -- 95
2020-10-31 23:00:00 14.7 9 Sudoeste 13 Sudoeste 0 1015 -- 96
2020-10-31 22:00:00 13.3 8 Sudoeste 13 Sudoeste 0 1014.6 -- 95
2020-10-31 21:00:00 13.2 8 Sudoeste 13 Sudoeste 0 1014.2 -- 93
2020-10-31 20:00:00 14.2 8 Sudoeste 11 Sur 0 1013.9 -- 90
2020-10-31 19:00:00 15.3 9 Sur 11 Sur 0 1013.8 -- 90
2020-10-31 18:00:00 17.7 8 Sur 13 Sur 0 1013.7 -- 81
2020-10-31 17:00:00 20.3 10 Sudoeste 15 Sur 0 1013.5 -- 70
2020-10-31 16:00:00 21.2 12 Sur 18 Sur 0 1013.3 -- 64
2020-10-31 15:00:00 21.3 13 Sudoeste 21 Sudoeste 0 1013.8 -- 62
2020-10-31 14:00:00 21.5 13 Sudoeste 22 Sudoeste 0 1014.2 -- 60
2020-10-31 13:00:00 21.2 12 Sudoeste 21 Sudoeste 0 1014.8 -- 68
2020-10-31 12:00:00 20.7 11 Sudoeste 17 Sudoeste 0 1015.3 -- 75
2020-10-31 11:00:00 19.7 9 Sudoeste 15 Sudoeste 0 1015.7 -- 79
2020-10-31 10:00:00 20.3 4 Sudoeste 9 Sudoeste 0 1015.6 -- 80
2020-10-31 09:00:00 19.2 0 Calma 5 Noroeste 0 1015.4 -- 96
2020-10-31 08:00:00 13.7 5 Noroeste 8 Noroeste 0 1015 -- 100
2020-10-31 07:00:00 12.2 5 Noroeste -- -- 0 1014.6 -- 99
2020-10-31 06:00:00 12.8 6 Noroeste 9 Noroeste 0 1014.6 -- 98
2020-10-31 05:00:00 13.4 6 Oeste 11 Noroeste 0 1014.6 -- 98
2020-10-31 04:00:00 14.7 8 Noroeste 11 Noroeste 0 1014.6 -- 98
2020-10-31 03:00:00 15.3 9 Noroeste 13 Noroeste 0 1014.9 -- 98
2020-10-31 02:00:00 16.3 10 Oeste 15 Oeste 0 1015.1 -- 97
2020-10-31 01:00:00 16.5 11 Oeste 17 Sudoeste 0 1015.3 -- 95
2020-10-31 00:00:00 16.5 11 Oeste 17 Sudoeste 0 1015.4 -- 93
2020-10-30 23:00:00 16.6 11 Sudoeste 15 Sudoeste 0 1015.5 -- 94
2020-10-30 22:00:00 15.7 11 Sudoeste 13 Sudoeste 0 1015.4 -- 96
2020-10-30 21:00:00 13.4 10 Sudoeste 13 Sudoeste 0 1015.2 -- 95
2020-10-30 20:00:00 13.9 8 Sudoeste 9 Sudoeste 0 1015.1 -- 92
2020-10-30 19:00:00 15.3 5 Sudoeste 11 Sudoeste 0 1015.2 -- 88
2020-10-30 18:00:00 17.8 8 Sudoeste 13 Sudoeste 0 1015 -- 82
2020-10-30 17:00:00 20.3 12 Sudoeste 17 Sudoeste 0 1015 -- 70
2020-10-30 16:00:00 21.2 14 Oeste 22 Sudoeste 0 1015.1 -- 67
2020-10-30 15:00:00 21.7 17 Oeste 26 Oeste 0 1015.2 -- 65
2020-10-30 14:00:00 21.6 19 Oeste 26 Oeste 0 1015.3 -- 61
2020-10-30 13:00:00 21.7 17 Oeste 24 Oeste 0 1015.6 -- 62
2020-10-30 12:00:00 21.6 15 Oeste 24 Oeste 0 1016.1 -- 70
2020-10-30 11:00:00 21.3 14 Oeste 21 Oeste 0 1016.3 -- 73
2020-10-30 10:00:00 20.2 9 Oeste 17 Oeste 0 1016.5 -- 79
2020-10-30 09:00:00 18.6 8 Oeste 13 Oeste 0 1016.2 -- 91
2020-10-30 08:00:00 16 7 Noroeste 11 Noroeste 0 1015.8 -- 97
2020-10-30 07:00:00 15.1 8 Noroeste 13 Noroeste 0 1015.4 -- 98
2020-10-30 06:00:00 14.7 7 Noroeste 13 Noroeste 0 1015.3 -- 97
2020-10-30 05:00:00 15 9 Noroeste 13 Noroeste 0 1015.3 -- 97
2020-10-30 04:00:00 14.6 10 Noroeste 13 Noroeste 0 1015.4 -- 97
2020-10-30 03:00:00 14.7 8 Noroeste 13 Oeste 0 1015.6 -- 96
2020-10-30 02:00:00 14.9 8 Noroeste 13 Noroeste 0 1015.6 -- 95
2020-10-30 01:00:00 15.5 8 Oeste 15 Sudoeste 0 1015.9 -- 92
2020-10-30 00:00:00 16.5 10 Oeste 17 Oeste 0 1016.3 -- 92
2020-10-29 23:00:00 15.1 9 Oeste 13 Oeste 0 1016.3 -- 92
2020-10-29 22:00:00 15.2 9 Oeste 15 Oeste 0 1016.3 -- 90
2020-10-29 21:00:00 15.8 9 Oeste 15 Sudoeste 0 1016.2 -- 88
2020-10-29 20:00:00 14.2 10 Oeste 13 Oeste 0 1015.9 -- 89
2020-10-29 19:00:00 14.6 5 Oeste 8 Oeste 0 1016 -- 85
2020-10-29 18:00:00 17.5 5 Oeste 9 Sudoeste 0 1015.7 -- 74
2020-10-29 17:00:00 19.9 8 Sudoeste 17 Sudoeste 0 1015.5 -- 63
2020-10-29 16:00:00 20.2 10 Sudoeste 18 Sur 0 1015.4 -- 60
2020-10-29 15:00:00 21.7 12 Sur 17 Sur 0 1015.1 -- 55
2020-10-29 14:00:00 22.5 4 Sur 26 Este 0 1015.4 -- 52
2020-10-29 13:00:00 21.4 7 Nordeste 15 Nordeste 0 1016.2 -- 55
2020-10-29 12:00:00 21.2 8 Nordeste 17 Nordeste 0 1016.6 -- 54
2020-10-29 11:00:00 19.8 11 Nordeste 24 Nordeste 0 1016.7 -- 63
2020-10-29 10:00:00 19.2 19 Nordeste 28 Norte 0 1016.5 -- 70
2020-10-29 09:00:00 18 15 Norte 18 Norte 0 1016.2 -- 81
2020-10-29 08:00:00 14 15 Norte 21 Norte 0 1015.5 -- 94
2020-10-29 07:00:00 12.9 12 Norte -- -- 0 1014.5 -- 93
2020-10-29 06:00:00 13.2 13 Norte 17 Norte 0 1014.5 -- 92
2020-10-29 05:00:00 13.4 13 Norte 15 Norte 0 1013.9 -- 92
2020-10-29 04:00:00 14.6 8 Noroeste 13 Norte 0 1013.9 -- 93
2020-10-29 03:00:00 14.8 11 Noroeste 15 Norte 0 1013.8 -- 92
2020-10-29 02:00:00 14.8 -- -- -- -- 0 1013.2 -- 92
2020-10-29 01:00:00 15.3 9 Noroeste 13 Norte 0 1013 -- 90
2020-10-29 00:00:00 15.5 12 Norte 13 Norte 0 1013 -- 90
2020-10-28 23:00:00 15.8 10 Norte 15 Noroeste 0 1012.9 -- 87
2020-10-28 22:00:00 17.6 9 Oeste 18 Sudoeste 0 1012.7 -- 78
2020-10-28 21:00:00 18.6 14 Sudoeste 24 Sudoeste 0 1012.2 -- 76
2020-10-28 20:00:00 18.4 14 Sudoeste 24 Sudoeste 0 1011.9 -- 77
2020-10-28 19:00:00 18 14 Sudoeste 21 Sur 0 1011.5 -- 75
2020-10-28 18:00:00 17.7 10 Sudoeste 15 Sudoeste 0 1010.8 -- 79
2020-10-28 17:00:00 19.3 10 Sudoeste 18 Sudoeste 0 1010.7 -- 67
2020-10-28 16:00:00 20.6 13 Sudoeste 21 Sudoeste 0 1010.6 -- 59
2020-10-28 15:00:00 21.2 14 Sudoeste 22 Sudoeste 0 1010.5 -- 49
2020-10-28 14:00:00 21.1 15 Sudoeste 26 Oeste 0 1010.5 -- 50
2020-10-28 13:00:00 21.1 14 Sudoeste 26 Sudoeste 0 1010.8 -- 48
2020-10-28 12:00:00 21 15 Oeste 28 Oeste 0 1011.2 -- 47
2020-10-28 11:00:00 20.5 16 Sudoeste 26 Sudoeste 0 1011.1 -- 50
2020-10-28 10:00:00 19.7 12 Sudoeste 18 Sudoeste 0 1010.7 -- 54
2020-10-28 09:00:00 18 6 Sudoeste 9 Sudoeste 0 1010.2 -- 67
2020-10-28 08:00:00 12.3 5 Oeste 9 Noroeste 0 1009.5 -- 87
2020-10-28 07:00:00 9.5 6 Noroeste -- -- 0 1008.8 -- 92
2020-10-28 06:00:00 9.7 7 Noroeste 11 Noroeste 0 1008.5 -- 90
2020-10-28 05:00:00 9.8 5 Noroeste 9 Noroeste 0 1008.1 -- 89
2020-10-28 04:00:00 11.7 6 Noroeste 15 Noroeste 0 1007.8 -- 81
2020-10-28 03:00:00 12.8 13 Noroeste 18 Noroeste 0 1007.9 -- 78
2020-10-28 02:00:00 12 10 Noroeste 17 Noroeste 0 1008.1 -- 82
2020-10-28 01:00:00 12.1 9 Noroeste 13 Noroeste 0 1008 -- 83
2020-10-28 00:00:00 12.3 8 Noroeste 13 Noroeste 0 1007.9 -- 82
2020-10-27 23:00:00 12.4 9 Noroeste 15 Noroeste 0 1008.2 -- 81
2020-10-27 22:00:00 12.4 7 Noroeste 13 Noroeste 0 1008.1 -- 78
2020-10-27 21:00:00 11.8 8 Noroeste 11 Noroeste 0 1007.8 -- 80
2020-10-27 20:00:00 12.4 9 Noroeste 11 Noroeste 0 1007.7 -- 77
2020-10-27 19:00:00 13.7 9 Noroeste 13 Noroeste 0 1007.2 -- 73
2020-10-27 18:00:00 15.4 8 Noroeste 21 Oeste 0 1006.7 -- 66
2020-10-27 17:00:00 17.5 11 Noroeste 26 Noroeste 0 1006.4 -- 55
2020-10-27 16:00:00 18 15 Noroeste 37 Oeste 0 1006.4 -- 52
2020-10-27 15:00:00 19.7 19 Oeste 37 Oeste 0 1006.4 -- 51
2020-10-27 14:00:00 19.1 22 Oeste 42 Oeste 0 1006.4 -- 51
2020-10-27 13:00:00 19 27 Oeste 42 Oeste 0 1006.8 -- 50
2020-10-27 12:00:00 18.8 21 Oeste 41 Noroeste 0 1007.4 -- 52
2020-10-27 11:00:00 18.3 21 Oeste 41 Oeste 0 1007.2 -- 55
2020-10-27 10:00:00 17.4 19 Oeste 33 Oeste 0 1006.8 -- 58
2020-10-27 09:00:00 16.7 15 Oeste 28 Oeste 0 1006.7 -- 60
2020-10-27 08:00:00 14.3 13 Noroeste 24 Noroeste 0 1005.9 -- 69
2020-10-27 07:00:00 13 13 Oeste 26 Noroeste 0 1005.4 -- 73
2020-10-27 06:00:00 13.8 15 Oeste 33 Noroeste 0 1005.1 -- 68
2020-10-27 05:00:00 13.8 20 Oeste 37 Oeste 0 1004.7 -- 71
2020-10-27 04:00:00 12.1 17 Oeste 28 Noroeste 0 1004.7 -- 79
2020-10-27 03:00:00 11.5 9 Noroeste 17 Oeste 0 1005 -- 81
2020-10-27 02:00:00 11.7 11 Oeste 17 Sudoeste 0 1005.2 -- 87
2020-10-27 01:00:00 9.8 5 Oeste 11 Sudoeste 0 1005.4 -- 95
2020-10-27 00:00:00 9.3 7 Sudoeste 11 Sur 0 1005.8 -- 94
2020-10-26 23:00:00 9.4 0 Calma 5 Norte 0 1005.7 -- 93
2020-10-26 22:00:00 10.3 -- -- -- -- 0 1005.7 -- 91
2020-10-26 21:00:00 11.5 10 Norte 13 Norte 0 1005.4 -- 88
2020-10-26 20:00:00 11.7 10 Norte 15 Norte 0 1004.9 -- 87
2020-10-26 19:00:00 11.8 9 Noroeste 30 Norte 0 1004.1 -- 89
2020-10-26 18:00:00 13.5 12 Norte 18 Norte 0 1002.9 -- 90
2020-10-26 17:00:00 15 9 Noroeste 58 Noroeste 1.2 1001.9 -- 83
2020-10-26 16:00:00 17.7 18 Oeste 32 Oeste 0 1001 -- 61
2020-10-26 15:00:00 16.9 17 Norte 39 Oeste 0 1000.4 -- 73
2020-10-26 14:00:00 17 19 Noroeste 39 Noroeste 0 1000.1 -- 59
2020-10-26 13:00:00 17 18 Oeste 33 Oeste 0 1000.5 -- 64
2020-10-26 12:00:00 16.3 17 Oeste 30 Oeste 0.4 1000.2 -- 77
2020-10-26 11:00:00 14.8 13 Oeste 37 Noroeste 0 1001 -- 89
2020-10-26 10:00:00 16.1 17 Noroeste 37 Noroeste 0 1000 -- 87
2020-10-26 09:00:00 16.1 12 Oeste 22 Oeste 1.9 999.3 -- 93
2020-10-26 08:00:00 16.3 17 Oeste 35 Noroeste 3.6 999.1 -- 87
2020-10-26 07:00:00 19 24 Sudoeste 39 Oeste 0 998.6 -- 83
2020-10-26 06:00:00 19.1 24 Sudoeste 39 Oeste 0 998.9 -- 81
2020-10-26 05:00:00 19.1 26 Sudoeste 42 Sudoeste 0 999 -- 80
2020-10-26 04:00:00 19.2 27 Sudoeste 46 Sudoeste 0 999.1 -- 79
2020-10-26 03:00:00 19.2 30 Sudoeste 48 Sudoeste 0 999.6 -- 78
2020-10-26 02:00:00 19.1 32 Sudoeste 50 Sudoeste 0 1000 -- 81
2020-10-26 01:00:00 19.3 30 Sudoeste 50 Sudoeste 0 1000.8 -- 80
2020-10-26 00:00:00 19.2 31 Sudoeste 46 Sudoeste 0 1001.4 -- 80
2020-10-25 23:00:00 19.2 28 Sudoeste 45 Sudoeste 0 1002.2 -- 80
2020-10-25 22:00:00 19.2 30 Sudoeste 50 Sudoeste 0 1002.6 -- 79
2020-10-25 21:00:00 19.2 33 Sudoeste 48 Sudoeste 0 1002.5 -- 79
2020-10-25 20:00:00 19.4 32 Sudoeste 50 Sudoeste 0 1003 -- 79
2020-10-25 19:00:00 19.5 28 Sudoeste 48 Sudoeste 0 1003.5 -- 78
2020-10-25 18:00:00 19.6 34 Sudoeste 54 Sudoeste 0 1003.4 -- 75
2020-10-25 17:00:00 20.6 34 Sudoeste 52 Sudoeste 0 1003.4 -- 72
2020-10-25 16:00:00 21 36 Sudoeste 54 Sudoeste 0 1003.7 -- 70
2020-10-25 15:00:00 21.7 32 Sudoeste 54 Sudoeste 0 1004.1 -- 63
2020-10-25 14:00:00 22.2 31 Sudoeste 48 Sudoeste 0 1004.6 -- 61
2020-10-25 13:00:00 22.1 31 Sudoeste 46 Sudoeste 0 1005.5 -- 60
2020-10-25 12:00:00 21.7 29 Sudoeste 45 Oeste 0 1006.4 -- 60
2020-10-25 11:00:00 21.2 31 Sudoeste 48 Oeste 0 1006.7 -- 62
2020-10-25 10:00:00 21 26 Sudoeste 39 Sudoeste 0 1007 -- 61
2020-10-25 09:00:00 20.3 26 Sudoeste 41 Sudoeste 0 1006.9 -- 65
2020-10-25 08:00:00 19.1 22 Sudoeste 35 Oeste 0 1006.8 -- 74
2020-10-25 07:00:00 18.3 21 Sudoeste 30 Oeste 0 1006.8 -- 79
2020-10-25 06:00:00 18 15 Sudoeste 32 Oeste 0 1007.2 -- 82
2020-10-25 05:00:00 18.2 19 Sudoeste 35 Oeste 0 1007.3 -- 80
2020-10-25 04:00:00 18.5 22 Oeste 39 Oeste 0 1007.6 -- 77
2020-10-25 03:00:00 18.4 24 Oeste 39 Sudoeste 0 1008.2 -- 74
2020-10-25 02:00:00 18.3 26 Oeste 39 Oeste 0 1008.7 -- 74
2020-10-25 01:00:00 18.1 28 Oeste 42 Oeste 0 1009.8 -- 74
2020-10-25 00:00:00 17.9 24 Oeste 37 Sudoeste 0 1010.4 -- 73